Time;durP1;ratioP1;P1;durP2;ratioP2;P2;SDS_P1;SDS_P2;PMS_P1;PMS_P2;Temp;Humidity;BMP_temperature;BMP_pressure;BME280_temperature;BME280_humidity;BME280_pressure;Samples;Min_cycle;Max_cycle;Signal;HPM_P1;HPM_P2
2021/11/15 00:02:26;;;;;;;13.65;7.38;;;15.00;58.40;;;;;;6259653;28;20063;-75
2021/11/15 00:05:28;;;;;;;11.73;6.32;;;15.00;58.40;;;;;;6268579;28;20026;-75
2021/11/15 00:08:29;;;;;;;11.15;6.30;;;15.00;58.40;;;;;;6254108;28;20049;-76
2021/11/15 00:11:30;;;;;;;12.20;6.28;;;15.00;58.50;;;;;;6238758;28;20045;-75
2021/11/15 00:14:31;;;;;;;17.92;7.38;;;15.00;58.40;;;;;;6264477;28;20041;-75
2021/11/15 00:17:32;;;;;;;14.25;6.55;;;15.00;58.40;;;;;;6259667;28;20040;-75
2021/11/15 00:20:35;;;;;;;12.75;6.00;;;15.10;58.40;;;;;;6246798;28;20033;-74
2021/11/15 00:23:37;;;;;;;10.48;6.18;;;15.00;58.20;;;;;;6252251;28;20037;-76
2021/11/15 00:26:38;;;;;;;12.18;4.90;;;15.00;58.10;;;;;;6251732;28;20034;-75
2021/11/15 00:29:39;;;;;;;12.35;5.90;;;15.00;58.20;;;;;;6254455;28;20068;-75
2021/11/15 00:32:40;;;;;;;8.77;5.10;;;15.00;58.30;;;;;;6280143;28;20041;-74
2021/11/15 00:35:41;;;;;;;13.23;6.78;;;15.00;58.40;;;;;;6274879;28;20412;-75
2021/11/15 00:38:42;;;;;;;11.38;5.70;;;15.00;59.00;;;;;;6263643;28;20052;-75
2021/11/15 00:41:44;;;;;;;12.93;6.22;;;15.00;58.30;;;;;;6255828;28;20152;-75
2021/11/15 00:44:45;;;;;;;10.35;5.65;;;15.00;58.20;;;;;;6246915;28;20061;-76
2021/11/15 00:47:46;;;;;;;9.90;5.30;;;15.00;58.20;;;;;;6249416;28;20033;-74
2021/11/15 00:50:47;;;;;;;12.05;5.53;;;15.00;58.00;;;;;;6248089;28;20038;-74
2021/11/15 00:53:48;;;;;;;11.35;6.47;;;15.00;58.10;;;;;;6244121;28;20120;-75
2021/11/15 00:56:49;;;;;;;10.45;5.38;;;15.00;58.10;;;;;;6274932;28;20053;-74
2021/11/15 00:59:50;;;;;;;11.70;5.57;;;14.90;58.10;;;;;;6268520;28;20052;-74
2021/11/15 01:02:53;;;;;;;9.77;4.40;;;14.90;58.20;;;;;;6272483;28;21573;-74
2021/11/15 01:05:54;;;;;;;8.88;4.70;;;14.90;58.30;;;;;;6272491;28;20112;-75
2021/11/15 01:08:55;;;;;;;9.93;5.03;;;14.90;58.40;;;;;;6259142;28;20049;-75
2021/11/15 01:11:56;;;;;;;12.52;5.10;;;14.90;58.50;;;;;;6250983;28;20038;-74
2021/11/15 01:14:58;;;;;;;10.73;5.28;;;14.90;58.60;;;;;;6243268;28;20041;-75
2021/11/15 01:17:59;;;;;;;9.05;5.53;;;14.90;58.60;;;;;;6268460;28;20025;-75
2021/11/15 01:21:00;;;;;;;10.10;4.65;;;14.90;58.60;;;;;;6266060;28;20052;-75
2021/11/15 01:24:02;;;;;;;9.23;4.10;;;14.90;58.50;;;;;;6254369;28;20026;-75
2021/11/15 01:27:03;;;;;;;10.02;4.47;;;14.90;58.30;;;;;;6270871;28;20094;-75
2021/11/15 01:30:10;;;;;;;6.97;4.57;;;14.90;58.20;;;;;;6269684;28;20053;-75
2021/11/15 01:33:10;;;;;;;10.90;5.28;;;14.90;58.10;;;;;;6289966;28;20033;-75
2021/11/15 01:36:12;;;;;;;10.68;4.57;;;14.80;58.10;;;;;;6274333;28;20047;-75
2021/11/15 01:39:13;;;;;;;7.60;3.92;;;14.80;58.10;;;;;;6265500;28;20037;-75
2021/11/15 01:42:14;;;;;;;6.93;4.25;;;14.80;58.10;;;;;;6263244;28;20495;-76
2021/11/15 01:45:23;;;;;;;7.32;4.80;;;14.80;58.00;;;;;;6259524;28;20033;-75
2021/11/15 01:48:24;;;;;;;8.65;5.18;;;14.90;58.00;;;;;;6246110;28;20056;-75
2021/11/15 01:51:25;;;;;;;7.82;4.55;;;14.80;57.90;;;;;;6279077;28;20102;-75
2021/11/15 01:54:28;;;;;;;8.43;5.07;;;14.80;57.90;;;;;;6247796;28;20033;-75
2021/11/15 01:57:29;;;;;;;9.45;4.38;;;14.80;57.90;;;;;;6235197;28;20099;-75
2021/11/15 02:00:44;;;;;;;10.88;4.70;;;14.80;57.90;;;;;;6255981;28;20038;-75
2021/11/15 02:03:45;;;;;;;10.23;5.25;;;14.80;58.00;;;;;;6266092;28;20147;-75
2021/11/15 02:06:46;;;;;;;10.68;5.47;;;14.80;57.90;;;;;;6252080;28;20046;-75
2021/11/15 02:09:47;;;;;;;10.00;4.85;;;14.90;57.90;;;;;;6279278;28;20040;-75
2021/11/15 02:12:50;;;;;;;7.18;4.35;;;14.80;57.90;;;;;;6260827;28;20053;-75
2021/11/15 02:15:53;;;;;;;6.40;4.07;;;14.80;57.80;;;;;;6235726;28;20120;-75
2021/11/15 02:18:54;;;;;;;8.02;4.32;;;14.80;57.80;;;;;;6267379;28;20041;-76
2021/11/15 02:21:55;;;;;;;9.98;4.50;;;14.80;57.70;;;;;;6252906;28;20104;-75
2021/11/15 02:25:00;;;;;;;7.90;4.65;;;14.80;58.00;;;;;;6248784;28;20046;-74
2021/11/15 02:28:01;;;;;;;9.57;4.80;;;14.80;57.70;;;;;;6278144;28;20521;-76
2021/11/15 02:31:04;;;;;;;8.30;4.47;;;14.70;57.60;;;;;;6279826;28;20098;-75
2021/11/15 02:34:49;;;;;;;10.13;5.20;;;14.70;57.50;;;;;;6269099;28;20402;-75
2021/11/15 02:37:52;;;;;;;8.20;4.45;;;14.70;57.60;;;;;;6280875;28;20060;-75
2021/11/15 02:40:53;;;;;;;9.05;5.00;;;14.60;57.60;;;;;;6293990;28;20130;-75
2021/11/15 02:43:54;;;;;;;7.50;4.72;;;14.50;57.70;;;;;;6271426;28;20033;-75
2021/11/15 02:46:55;;;;;;;10.93;4.18;;;14.50;57.80;;;;;;6263207;28;20049;-75
2021/11/15 02:49:57;;;;;;;10.23;4.65;;;14.50;57.80;;;;;;6253448;28;20041;-75
2021/11/15 02:53:02;;;;;;;9.15;4.18;;;14.50;57.90;;;;;;6284205;28;20072;-75
2021/11/15 02:56:05;;;;;;;8.00;4.82;;;14.40;57.90;;;;;;6266600;28;20053;-75
2021/11/15 02:59:06;;;;;;;11.05;3.92;;;14.40;58.00;;;;;;6268257;28;20036;-75
2021/11/15 03:02:07;;;;;;;8.60;4.35;;;14.40;58.00;;;;;;6273178;28;20053;-74
2021/11/15 03:05:08;;;;;;;7.78;4.05;;;14.40;58.10;;;;;;6261166;28;20101;-74
2021/11/15 03:08:10;;;;;;;8.45;4.32;;;14.40;58.10;;;;;;6294437;28;20093;-75
2021/11/15 03:11:11;;;;;;;8.82;4.50;;;14.50;58.00;;;;;;6275487;28;20101;-75
2021/11/15 03:14:12;;;;;;;8.02;4.68;;;14.50;58.10;;;;;;6252589;28;20045;-75
2021/11/15 03:17:13;;;;;;;6.82;4.30;;;14.50;58.00;;;;;;6281201;28;20036;-74
2021/11/15 03:20:14;;;;;;;10.40;4.97;;;14.50;58.00;;;;;;6272740;28;20105;-75
2021/11/15 03:23:19;;;;;;;7.28;4.28;;;14.50;58.00;;;;;;6266974;28;20364;-75
2021/11/15 03:26:22;;;;;;;8.38;5.05;;;14.50;58.10;;;;;;6274074;28;20058;-74
2021/11/15 03:29:23;;;;;;;8.57;3.83;;;14.50;58.10;;;;;;6270329;28;20403;-75
2021/11/15 03:32:25;;;;;;;9.95;4.43;;;14.50;58.10;;;;;;6244055;28;20098;-75
2021/11/15 03:35:26;;;;;;;7.40;4.32;;;14.50;58.00;;;;;;6259007;28;20120;-73
2021/11/15 03:38:27;;;;;;;7.32;4.70;;;14.50;58.00;;;;;;6263298;28;20025;-75
2021/11/15 03:41:31;;;;;;;7.80;4.03;;;14.50;58.00;;;;;;6253611;28;20038;-74
2021/11/15 03:44:32;;;;;;;9.55;4.78;;;14.50;58.00;;;;;;6262213;28;20040;-74
2021/11/15 03:47:33;;;;;;;8.02;4.00;;;14.50;58.00;;;;;;6274826;28;20351;-75
2021/11/15 03:50:35;;;;;;;7.45;4.45;;;14.50;57.90;;;;;;6277553;28;20365;-74
2021/11/15 03:53:38;;;;;;;9.98;4.00;;;14.50;57.90;;;;;;6256760;28;20029;-76
2021/11/15 03:56:40;;;;;;;6.30;3.92;;;14.50;57.90;;;;;;6252766;28;20045;-75
2021/11/15 03:59:40;;;;;;;6.25;3.88;;;14.40;57.90;;;;;;6259609;28;20424;-74
2021/11/15 04:02:43;;;;;;;6.72;3.97;;;14.50;58.00;;;;;;6270201;28;20045;-74
2021/11/15 04:05:52;;;;;;;8.70;4.00;;;14.50;58.00;;;;;;6254650;28;20044;-75
2021/11/15 04:08:56;;;;;;;8.50;4.18;;;14.50;57.90;;;;;;6269799;28;20037;-75
2021/11/15 04:11:57;;;;;;;9.20;3.70;;;14.50;57.90;;;;;;6234229;28;20041;-75
2021/11/15 04:14:58;;;;;;;7.75;3.65;;;14.50;58.00;;;;;;6241655;28;20386;-75
2021/11/15 04:18:00;;;;;;;7.85;4.50;;;14.50;57.90;;;;;;6251156;28;20037;-75
2021/11/15 04:21:01;;;;;;;7.38;3.28;;;14.50;58.00;;;;;;6272568;28;20040;-75
2021/11/15 04:24:03;;;;;;;7.47;4.07;;;14.50;58.00;;;;;;6271635;28;20112;-76
2021/11/15 04:27:05;;;;;;;7.78;4.15;;;14.50;58.00;;;;;;6254298;28;20049;-75
2021/11/15 04:30:09;;;;;;;8.50;4.40;;;14.40;58.00;;;;;;6262955;28;20060;-75
2021/11/15 04:33:10;;;;;;;7.55;4.25;;;14.40;58.10;;;;;;6240152;28;20347;-75
2021/11/15 04:36:11;;;;;;;6.55;3.92;;;14.40;58.00;;;;;;6287053;28;20112;-75
2021/11/15 04:39:12;;;;;;;9.05;4.75;;;14.50;58.20;;;;;;6269720;28;20052;-75
2021/11/15 04:42:13;;;;;;;10.00;5.03;;;14.50;58.00;;;;;;6234827;28;20041;-75
2021/11/15 04:45:14;;;;;;;6.15;4.35;;;14.50;58.00;;;;;;6249379;28;20033;-75
2021/11/15 04:48:15;;;;;;;7.07;3.72;;;14.50;58.00;;;;;;6248101;28;20040;-75
2021/11/15 04:51:16;;;;;;;7.90;4.18;;;14.50;58.00;;;;;;6277999;28;20037;-75
2021/11/15 04:54:18;;;;;;;7.68;4.25;;;14.50;58.00;;;;;;6271615;28;20056;-74
2021/11/15 04:57:19;;;;;;;8.35;4.40;;;14.50;58.00;;;;;;6273179;28;20037;-74
2021/11/15 05:00:25;;;;;;;9.68;4.47;;;14.50;57.90;;;;;;6264235;28;20405;-73
2021/11/15 05:03:26;;;;;;;7.45;4.78;;;14.60;57.90;;;;;;6256954;28;20099;-74
2021/11/15 05:06:27;;;;;;;6.20;4.00;;;14.60;57.80;;;;;;6294854;28;20033;-74
2021/11/15 05:09:28;;;;;;;7.13;3.97;;;14.50;57.70;;;;;;6264199;28;20060;-76
2021/11/15 05:12:34;;;;;;;6.85;3.65;;;14.50;57.50;;;;;;6256294;28;20076;-75
2021/11/15 05:15:35;;;;;;;6.47;4.30;;;14.50;57.60;;;;;;6249323;28;20041;-74
2021/11/15 05:18:36;;;;;;;7.68;3.97;;;14.40;57.60;;;;;;6249984;28;20034;-74
2021/11/15 05:21:37;;;;;;;6.97;4.13;;;14.40;57.70;;;;;;6254448;28;20450;-74
2021/11/15 05:29:25;;;;;;;8.48;4.15;;;14.40;57.80;;;;;;6249072;28;20044;-74
2021/11/15 05:32:26;;;;;;;9.45;4.30;;;14.40;57.80;;;;;;6268288;28;20108;-74
2021/11/15 05:35:28;;;;;;;8.02;4.65;;;14.30;57.80;;;;;;6266221;28;20398;-75
2021/11/15 05:38:29;;;;;;;6.60;3.70;;;14.30;57.90;;;;;;6243188;28;20038;-74
2021/11/15 05:41:30;;;;;;;6.50;3.80;;;14.30;57.80;;;;;;6268043;28;20443;-74
2021/11/15 05:44:31;;;;;;;7.85;3.85;;;14.30;57.90;;;;;;6248281;28;20037;-75
2021/11/15 05:47:32;;;;;;;7.07;3.80;;;14.30;57.80;;;;;;6267143;28;20044;-75
2021/11/15 05:50:33;;;;;;;9.40;3.60;;;14.30;57.90;;;;;;6269038;28;20053;-74
2021/11/15 05:53:38;;;;;;;6.82;3.35;;;14.30;57.90;;;;;;6240345;28;20466;-75
2021/11/15 05:56:41;;;;;;;6.75;3.47;;;14.30;57.90;;;;;;6249444;28;20038;-74
2021/11/15 05:59:43;;;;;;;6.00;3.40;;;14.30;58.00;;;;;;6258985;28;20041;-75
2021/11/15 06:02:44;;;;;;;6.63;3.30;;;14.30;58.20;;;;;;6256615;28;20084;-76
2021/11/15 06:05:45;;;;;;;6.80;3.78;;;14.30;58.20;;;;;;6265386;28;20045;-76
2021/11/15 06:08:46;;;;;;;7.95;3.22;;;14.20;58.30;;;;;;6251232;28;20095;-75
2021/11/15 06:11:47;;;;;;;6.30;3.00;;;14.20;58.40;;;;;;6267180;28;20037;-76
2021/11/15 06:14:48;;;;;;;10.70;3.05;;;14.20;58.40;;;;;;6256631;28;20474;-75
2021/11/15 06:17:50;;;;;;;7.70;3.67;;;14.20;58.40;;;;;;6270226;28;20047;-76
2021/11/15 06:20:51;;;;;;;5.93;3.30;;;14.20;58.30;;;;;;6276492;28;20093;-75
2021/11/15 06:23:52;;;;;;;6.32;3.28;;;14.20;58.40;;;;;;6270972;28;20041;-75
2021/11/15 06:26:53;;;;;;;7.93;3.72;;;14.20;58.40;;;;;;6266568;28;20026;-75
2021/11/15 06:29:54;;;;;;;6.28;3.53;;;14.20;58.40;;;;;;6250994;28;20480;-75
2021/11/15 06:32:55;;;;;;;10.05;4.35;;;14.20;58.40;;;;;;6255464;28;20029;-75
2021/11/15 06:35:56;;;;;;;7.55;4.13;;;14.20;58.50;;;;;;6260607;28;20743;-75
2021/11/15 06:38:58;;;;;;;6.90;3.65;;;14.20;58.50;;;;;;6255051;28;20036;-76
2021/11/15 06:41:59;;;;;;;8.43;4.03;;;14.30;58.40;;;;;;6259468;28;20032;-76
2021/11/15 06:45:00;;;;;;;10.85;4.57;;;14.30;58.20;;;;;;6270677;28;20033;-74
2021/11/15 06:48:02;;;;;;;11.23;4.20;;;14.30;58.20;;;;;;6263313;28;21373;-75
2021/11/15 06:51:03;;;;;;;9.30;3.88;;;14.30;58.00;;;;;;6252466;28;20110;-75
2021/11/15 06:54:04;;;;;;;14.02;3.88;;;14.30;58.00;;;;;;6257153;28;20040;-76
2021/11/15 06:57:05;;;;;;;11.98;4.65;;;14.30;57.90;;;;;;6250924;28;20045;-75
2021/11/15 07:00:09;;;;;;;7.13;3.53;;;14.30;57.90;;;;;;6258305;28;20033;-74
2021/11/15 07:03:10;;;;;;;8.25;3.88;;;14.30;57.90;;;;;;6249379;28;20129;-74
2021/11/15 07:06:11;;;;;;;10.60;4.32;;;14.30;57.80;;;;;;6265874;28;20045;-75
2021/11/15 07:09:12;;;;;;;7.30;3.63;;;14.30;57.90;;;;;;6257984;28;20033;-75
2021/11/15 07:12:13;;;;;;;7.78;4.50;;;14.30;58.60;;;;;;6250537;28;20037;-75
2021/11/15 07:15:16;;;;;;;6.07;3.63;;;14.30;58.10;;;;;;6259468;28;20135;-75
2021/11/15 07:18:17;;;;;;;8.40;4.18;;;14.30;58.30;;;;;;6253812;28;20037;-75
2021/11/15 07:21:19;;;;;;;7.35;3.92;;;14.20;58.40;;;;;;6256191;28;20344;-75
2021/11/15 07:24:20;;;;;;;15.15;4.15;;;14.20;58.50;;;;;;6259630;28;20079;-74
2021/11/15 07:27:21;;;;;;;11.35;4.50;;;14.20;58.50;;;;;;6259817;28;20404;-75
2021/11/15 07:30:23;;;;;;;12.43;4.53;;;14.10;58.60;;;;;;6252088;28;20088;-75
2021/11/15 07:33:27;;;;;;;11.65;4.15;;;14.10;58.70;;;;;;6271786;28;20091;-75
2021/11/15 07:36:27;;;;;;;8.77;3.70;;;14.10;58.70;;;;;;6266283;28;20053;-75
2021/11/15 07:39:28;;;;;;;10.35;3.90;;;14.20;58.80;;;;;;6269099;28;20116;-74
2021/11/15 07:42:30;;;;;;;9.35;4.00;;;14.10;58.70;;;;;;6264106;28;20048;-75
2021/11/15 07:45:30;;;;;;;8.82;4.65;;;14.10;58.70;;;;;;6229106;28;20512;-75
2021/11/15 07:48:32;;;;;;;6.05;3.70;;;14.10;58.70;;;;;;6261683;28;20036;-75
2021/11/15 07:51:33;;;;;;;8.90;4.35;;;14.10;58.60;;;;;;6257621;28;20069;-74
2021/11/15 07:54:34;;;;;;;8.75;4.22;;;14.10;58.40;;;;;;6266555;28;20102;-74
2021/11/15 07:57:38;;;;;;;13.18;5.10;;;14.10;58.30;;;;;;6279987;28;20470;-75
2021/11/15 08:00:39;;;;;;;9.02;4.55;;;14.10;58.20;;;;;;6265867;28;20045;-76
2021/11/15 08:03:41;;;;;;;10.88;4.18;;;14.10;58.20;;;;;;6229438;28;20034;-74
2021/11/15 08:06:43;;;;;;;13.65;4.53;;;14.10;58.20;;;;;;6261182;28;20098;-74
2021/11/15 08:09:44;;;;;;;8.85;4.63;;;14.20;58.20;;;;;;6266038;28;20083;-75
2021/11/15 08:12:47;;;;;;;8.88;4.35;;;14.20;58.20;;;;;;6273940;28;20059;-75
2021/11/15 08:15:48;;;;;;;8.88;4.40;;;14.20;58.00;;;;;;6264233;28;20416;-76
2021/11/15 08:18:49;;;;;;;8.38;4.70;;;14.20;58.00;;;;;;6248202;28;20056;-76
2021/11/15 08:21:50;;;;;;;7.93;4.30;;;14.30;58.00;;;;;;6243965;28;20034;-76
2021/11/15 08:25:00;;;;;;;8.85;4.53;;;14.30;57.90;;;;;;6262018;28;20037;-76
2021/11/15 08:28:01;;;;;;;10.82;4.00;;;14.30;57.80;;;;;;6240127;28;20040;-76
2021/11/15 08:31:05;;;;;;;7.28;3.67;;;14.20;57.70;;;;;;6232313;28;20033;-74
2021/11/15 08:34:07;;;;;;;9.10;3.67;;;14.20;57.70;;;;;;6261002;28;20036;-75
2021/11/15 08:37:09;;;;;;;10.27;4.57;;;14.20;57.60;;;;;;6263988;28;20147;-76
2021/11/15 08:40:10;;;;;;;7.55;3.97;;;14.20;57.50;;;;;;6250047;28;20116;-75
2021/11/15 08:43:14;;;;;;;7.65;4.15;;;14.20;57.60;;;;;;6263245;28;20546;-75
2021/11/15 08:46:15;;;;;;;17.55;5.72;;;14.20;57.70;;;;;;6290990;28;20051;-77
2021/11/15 08:49:19;;;;;;;11.40;4.60;;;14.10;57.90;;;;;;6260575;28;20040;-77
2021/11/15 08:52:20;;;;;;;7.15;4.05;;;14.10;58.00;;;;;;6270616;28;20043;-75
2021/11/15 08:55:21;;;;;;;9.85;4.75;;;14.10;58.10;;;;;;6270993;28;20037;-76
2021/11/15 08:58:22;;;;;;;12.90;4.28;;;14.10;58.20;;;;;;6268208;28;20044;-75
2021/11/15 09:01:25;;;;;;;8.40;4.80;;;14.00;58.20;;;;;;6271314;28;20029;-75
2021/11/15 09:04:26;;;;;;;11.05;5.00;;;14.10;58.40;;;;;;6252061;28;20037;-76
2021/11/15 09:07:28;;;;;;;11.32;4.97;;;14.10;59.00;;;;;;6261789;28;20111;-76
2021/11/15 09:10:29;;;;;;;12.65;4.40;;;14.10;58.40;;;;;;6255906;28;20450;-75
2021/11/15 09:13:30;;;;;;;9.38;4.43;;;14.10;58.40;;;;;;6251694;28;20041;-75
2021/11/15 09:16:31;;;;;;;8.25;4.28;;;14.10;58.40;;;;;;6253327;28;20064;-76
2021/11/15 09:19:32;;;;;;;10.95;4.82;;;14.10;58.40;;;;;;6253147;28;20403;-75
2021/11/15 09:22:34;;;;;;;9.30;4.63;;;14.10;58.40;;;;;;6249766;28;20053;-75
2021/11/15 09:25:35;;;;;;;10.80;4.90;;;14.10;58.40;;;;;;6244480;28;20026;-76
2021/11/15 09:28:37;;;;;;;9.57;4.00;;;14.10;58.50;;;;;;6254810;28;20067;-76
2021/11/15 09:31:38;;;;;;;8.75;4.10;;;14.10;58.50;;;;;;6244685;28;20075;-76
2021/11/15 09:34:41;;;;;;;9.63;4.35;;;14.10;58.40;;;;;;6244531;28;20113;-76
2021/11/15 09:37:42;;;;;;;10.13;4.40;;;14.10;58.20;;;;;;6269093;28;20040;-76
2021/11/15 09:40:46;;;;;;;7.63;4.07;;;14.10;58.30;;;;;;6243459;28;20267;-75
2021/11/15 09:43:47;;;;;;;8.50;4.03;;;14.20;58.30;;;;;;6248651;28;20044;-77
2021/11/15 09:46:48;;;;;;;8.38;4.30;;;14.20;58.20;;;;;;6251498;28;20041;-76
2021/11/15 09:49:50;;;;;;;10.95;4.50;;;14.20;58.20;;;;;;6243310;28;20493;-77
2021/11/15 09:52:51;;;;;;;10.38;5.65;;;14.20;58.10;;;;;;6241948;28;20041;-76
2021/11/15 09:55:54;;;;;;;10.02;4.72;;;14.20;58.20;;;;;;6236432;28;20048;-75
2021/11/15 09:58:55;;;;;;;8.55;4.28;;;14.20;58.20;;;;;;6239482;28;20447;-75
2021/11/15 10:01:58;;;;;;;9.10;5.03;;;14.30;58.20;;;;;;6241986;28;20099;-75
2021/11/15 10:04:59;;;;;;;10.82;5.07;;;14.30;58.20;;;;;;6261313;28;20377;-74
2021/11/15 10:08:05;;;;;;;8.38;4.35;;;14.30;58.10;;;;;;6252124;28;20056;-75
2021/11/15 10:11:06;;;;;;;9.82;4.47;;;14.30;58.10;;;;;;6246942;28;20470;-76
2021/11/15 10:14:07;;;;;;;9.45;5.10;;;14.30;58.10;;;;;;6265141;28;20044;-76
2021/11/15 10:17:08;;;;;;;9.00;4.40;;;14.30;58.00;;;;;;6286705;28;20101;-76
2021/11/15 10:20:09;;;;;;;9.80;4.75;;;14.30;58.00;;;;;;6267511;28;20045;-76
2021/11/15 10:23:29;;;;;;;15.85;6.68;;;14.30;58.00;;;;;;6269389;28;20489;-75
2021/11/15 10:26:37;;;;;;;11.02;5.20;;;14.30;58.00;;;;;;6264483;28;20041;-75
2021/11/15 10:29:55;;;;;;;13.60;6.05;;;14.30;57.90;;;;;;6253401;28;20447;-75
2021/11/15 10:32:56;;;;;;;11.15;5.18;;;14.30;58.00;;;;;;6274260;28;20033;-76
2021/11/15 10:35:57;;;;;;;11.68;5.18;;;14.40;57.90;;;;;;6262302;28;20045;-76
2021/11/15 10:38:59;;;;;;;11.35;4.32;;;14.40;57.90;;;;;;6268353;28;20044;-76
2021/11/15 10:42:06;;;;;;;10.05;4.72;;;14.40;57.80;;;;;;6261751;28;20332;-76
2021/11/15 10:45:08;;;;;;;9.32;3.92;;;14.40;57.80;;;;;;6255652;28;20489;-75
2021/11/15 10:48:16;;;;;;;13.15;5.70;;;14.40;57.80;;;;;;6265781;28;20132;-75
2021/11/15 10:51:20;;;;;;;13.05;5.55;;;14.40;57.80;;;;;;6264266;28;20048;-75
2021/11/15 10:54:35;;;;;;;11.02;4.38;;;14.50;57.70;;;;;;6268656;28;20041;-75
2021/11/15 10:57:48;;;;;;;9.48;4.78;;;14.40;57.60;;;;;;6264726;28;20037;-75
2021/11/15 11:01:02;;;;;;;9.85;5.15;;;14.40;57.50;;;;;;6259652;28;20041;-76
2021/11/15 11:04:16;;;;;;;9.82;4.75;;;14.40;57.50;;;;;;6257840;28;20029;-76
2021/11/15 11:07:20;;;;;;;9.30;5.13;;;14.30;57.50;;;;;;6257264;28;20037;-76
2021/11/15 11:10:22;;;;;;;13.57;5.43;;;14.30;57.60;;;;;;6242130;28;20040;-77
2021/11/15 11:13:26;;;;;;;10.15;4.47;;;14.30;57.60;;;;;;6247229;28;20037;-78
2021/11/15 11:16:42;;;;;;;17.83;6.03;;;14.30;57.60;;;;;;6265456;28;20405;-76
2021/11/15 11:26:38;;;;;;;10.23;4.80;;;14.20;57.70;;;;;;6260637;28;20044;-76
2021/11/15 11:29:43;;;;;;;7.63;4.53;;;14.20;57.70;;;;;;6234605;28;20474;-76
2021/11/15 11:32:46;;;;;;;9.32;4.85;;;14.20;57.70;;;;;;6250628;28;20518;-76
2021/11/15 11:35:50;;;;;;;10.18;4.65;;;14.30;57.70;;;;;;6250094;28;20055;-75
2021/11/15 11:38:52;;;;;;;9.18;4.63;;;14.30;57.70;;;;;;6247494;28;20034;-75
2021/11/15 11:41:57;;;;;;;9.48;4.85;;;14.30;57.70;;;;;;6256079;28;20036;-76
2021/11/15 11:44:58;;;;;;;13.68;4.88;;;14.20;57.60;;;;;;6255900;28;20120;-77
2021/11/15 11:47:59;;;;;;;12.25;5.22;;;14.20;57.70;;;;;;6264271;28;20400;-77
2021/11/15 11:51:00;;;;;;;11.43;5.78;;;14.10;57.80;;;;;;6265217;28;20049;-76
2021/11/15 11:54:21;;;;;;;10.48;4.60;;;14.10;57.80;;;;;;6277141;28;20093;-75
2021/11/15 11:57:29;;;;;;;15.18;5.30;;;14.10;57.90;;;;;;6281003;28;20037;-75
2021/11/15 12:00:32;;;;;;;;;;;14.00;57.90;;;;;;6263994;28;20076;-76
2021/11/15 12:03:33;;;;;;;12.82;5.88;;;14.00;58.00;;;;;;6269346;28;19912;-76
2021/11/15 12:06:34;;;;;;;9.10;4.68;;;14.00;58.00;;;;;;6243243;28;20096;-76
2021/11/15 12:09:46;;;;;;;9.60;3.97;;;14.00;58.10;;;;;;6277080;28;20227;-76
2021/11/15 12:12:53;;;;;;;13.93;5.43;;;13.90;58.10;;;;;;6258931;28;20224;-77
2021/11/15 12:15:58;;;;;;;10.05;4.32;;;13.90;58.20;;;;;;6262691;28;20040;-76
2021/11/15 12:19:01;;;;;;;12.07;5.13;;;13.90;58.20;;;;;;6279332;28;20033;-75
2021/11/15 12:22:15;;;;;;;8.27;4.63;;;13.90;58.20;;;;;;6251087;28;20033;-76
2021/11/15 12:25:23;;;;;;;10.82;4.82;;;13.80;58.30;;;;;;6271537;28;20046;-76
2021/11/15 12:28:29;;;;;;;13.65;4.70;;;13.90;58.30;;;;;;6254711;28;20033;-76
2021/11/15 12:31:46;;;;;;;14.68;4.82;;;13.90;58.30;;;;;;6250016;28;20112;-76
2021/11/15 12:34:59;;;;;;;9.85;4.15;;;13.80;58.20;;;;;;6253633;28;20049;-75
2021/11/15 12:38:00;;;;;;;12.23;4.68;;;13.80;58.30;;;;;;6239937;28;20051;-77
2021/11/15 12:41:25;;;;;;;11.13;4.85;;;13.80;58.30;;;;;;6256597;28;20041;-75
2021/11/15 12:44:29;;;;;;;8.25;3.80;;;13.80;58.40;;;;;;6262264;28;20482;-77
2021/11/15 12:47:38;;;;;;;8.00;3.90;;;13.90;58.30;;;;;;6260427;28;20049;-76
2021/11/15 12:50:51;;;;;;;8.20;4.38;;;13.90;58.30;;;;;;6250753;28;20041;-76
2021/11/15 12:53:53;;;;;;;9.82;4.30;;;13.90;58.30;;;;;;6256313;28;20037;-74
2021/11/15 12:56:54;;;;;;;10.82;4.55;;;13.90;58.20;;;;;;6240707;28;20129;-76
2021/11/15 13:00:17;;;;;;;7.88;4.28;;;14.00;58.20;;;;;;6253230;28;20537;-76
2021/11/15 13:03:18;;;;;;;9.75;4.15;;;14.00;58.20;;;;;;6253570;28;20040;-75
2021/11/15 13:06:25;;;;;;;10.02;4.40;;;14.00;58.10;;;;;;6269782;28;20051;-76
2021/11/15 13:09:26;;;;;;;11.27;5.07;;;14.00;58.10;;;;;;6250965;28;20045;-76
2021/11/15 13:12:30;;;;;;;10.13;4.50;;;14.10;58.00;;;;;;6245136;28;20041;-75
2021/11/15 13:15:31;;;;;;;9.07;5.05;;;14.10;57.90;;;;;;6260028;28;20040;-76
2021/11/15 13:18:32;;;;;;;7.50;3.90;;;14.10;57.80;;;;;;6264747;28;20084;-76
2021/11/15 13:21:40;;;;;;;10.50;4.82;;;14.10;57.80;;;;;;6264838;28;20041;-76
2021/11/15 13:24:44;;;;;;;9.40;4.25;;;14.10;57.80;;;;;;6255973;28;20044;-77
2021/11/15 13:27:47;;;;;;;9.48;4.60;;;14.10;57.80;;;;;;6258804;28;21044;-75
2021/11/15 13:30:50;;;;;;;10.95;5.10;;;14.10;57.80;;;;;;6252897;28;20064;-77
2021/11/15 13:33:51;;;;;;;12.45;4.80;;;14.20;57.80;;;;;;6253666;28;20060;-77
2021/11/15 13:36:51;;;;;;;10.23;4.72;;;14.20;57.60;;;;;;6244305;28;20049;-75
2021/11/15 13:39:54;;;;;;;8.90;4.22;;;14.30;57.50;;;;;;6257979;28;20051;-76
2021/11/15 13:42:55;;;;;;;7.40;4.03;;;14.30;57.40;;;;;;6254309;28;20042;-76
2021/11/15 13:45:56;;;;;;;8.40;4.47;;;14.40;57.30;;;;;;6260389;28;20041;-77
2021/11/15 13:48:57;;;;;;;8.38;4.53;;;14.40;57.10;;;;;;6253369;28;20071;-75
2021/11/15 13:51:58;;;;;;;11.75;5.28;;;14.50;57.10;;;;;;6265682;28;20125;-75
2021/11/15 13:55:02;;;;;;;8.68;4.22;;;14.40;57.00;;;;;;6257714;28;20034;-75
2021/11/15 13:58:03;;;;;;;10.95;4.93;;;14.40;57.00;;;;;;6255110;28;20048;-74
2021/11/15 14:01:05;;;;;;;11.43;4.63;;;14.50;56.90;;;;;;6260267;28;20030;-76
2021/11/15 14:04:06;;;;;;;10.85;4.93;;;14.50;56.90;;;;;;6259884;28;20085;-76
2021/11/15 14:07:07;;;;;;;17.23;4.45;;;14.50;56.80;;;;;;6262358;28;20059;-77
2021/11/15 14:10:08;;;;;;;8.43;4.50;;;14.50;56.70;;;;;;6260948;28;20040;-76
2021/11/15 14:13:10;;;;;;;11.18;4.88;;;14.50;56.70;;;;;;6256838;28;20056;-76
2021/11/15 14:16:11;;;;;;;11.10;4.68;;;14.50;56.60;;;;;;6259404;28;20036;-77
2021/11/15 14:19:12;;;;;;;9.13;4.65;;;14.50;56.60;;;;;;6235712;28;20052;-77
2021/11/15 14:22:13;;;;;;;18.92;4.70;;;14.50;56.60;;;;;;6260247;28;20072;-75
2021/11/15 14:25:13;;;;;;;9.55;4.80;;;14.50;56.60;;;;;;6261536;28;20041;-76
2021/11/15 14:28:19;;;;;;;10.38;4.70;;;14.50;56.60;;;;;;6260922;28;20033;-77
2021/11/15 14:31:20;;;;;;;11.25;4.50;;;14.40;56.70;;;;;;6258924;28;20061;-77
2021/11/15 14:34:26;;;;;;;16.92;5.60;;;14.30;56.80;;;;;;6261914;28;20471;-76
2021/11/15 14:37:27;;;;;;;10.95;4.50;;;14.30;56.90;;;;;;6260313;28;20033;-76
2021/11/15 14:40:28;;;;;;;11.57;5.47;;;14.30;57.00;;;;;;6260547;28;20067;-76
2021/11/15 14:43:29;;;;;;;10.65;5.07;;;14.20;57.10;;;;;;6259029;28;20049;-77
2021/11/15 14:46:30;;;;;;;12.32;5.32;;;14.20;57.20;;;;;;6264077;28;20060;-76
2021/11/15 14:49:31;;;;;;;10.07;4.97;;;14.10;57.30;;;;;;6259780;28;20044;-77
2021/11/15 14:52:34;;;;;;;26.40;5.00;;;14.10;57.50;;;;;;6253546;28;20036;-76
2021/11/15 14:55:35;;;;;;;11.75;5.68;;;14.00;57.60;;;;;;6244832;28;20052;-76
2021/11/15 14:58:36;;;;;;;10.65;5.68;;;14.00;57.80;;;;;;6266664;28;20102;-76
2021/11/15 15:01:56;;;;;;;15.70;6.13;;;13.90;57.80;;;;;;6265750;28;20033;-75
2021/11/15 15:04:57;;;;;;;10.98;5.35;;;13.90;58.00;;;;;;6259843;28;20041;-76
2021/11/15 15:07:58;;;;;;;16.35;6.38;;;13.90;58.00;;;;;;6252638;28;20381;-76
2021/11/15 15:10:59;;;;;;;12.00;5.95;;;13.90;58.10;;;;;;6260683;28;20406;-77
2021/11/15 15:14:00;;;;;;;13.18;5.55;;;13.90;58.20;;;;;;6259544;28;20041;-75
2021/11/15 15:17:02;;;;;;;13.43;6.10;;;13.80;58.20;;;;;;6247617;28;20513;-75
2021/11/15 15:20:05;;;;;;;10.95;5.47;;;13.80;58.30;;;;;;6265314;28;20033;-75
2021/11/15 15:23:08;;;;;;;11.20;5.90;;;13.80;58.30;;;;;;6269288;28;20108;-76
2021/11/15 15:26:09;;;;;;;10.32;4.97;;;13.80;58.40;;;;;;6268466;28;20044;-77
2021/11/15 15:29:12;;;;;;;15.32;5.38;;;13.80;58.40;;;;;;6240787;28;20041;-78
2021/11/15 15:32:13;;;;;;;11.80;4.93;;;13.80;58.40;;;;;;6252416;28;20553;-75
2021/11/15 15:35:14;;;;;;;12.35;5.15;;;13.80;58.40;;;;;;6263561;28;20124;-76
2021/11/15 15:38:15;;;;;;;16.48;5.88;;;13.80;58.30;;;;;;6259488;28;20037;-76
2021/11/15 15:41:18;;;;;;;14.95;5.43;;;13.80;58.30;;;;;;6264986;28;20037;-76
2021/11/15 15:44:19;;;;;;;10.00;5.93;;;13.90;58.90;;;;;;6266659;28;20048;-76
2021/11/15 15:47:19;;;;;;;11.25;5.18;;;13.90;58.30;;;;;;6250358;28;20442;-76
2021/11/15 15:50:21;;;;;;;13.18;5.20;;;13.90;58.30;;;;;;6264945;28;20460;-76
2021/11/15 15:53:27;;;;;;;14.43;5.50;;;13.90;58.20;;;;;;6274792;28;20033;-76
2021/11/15 15:56:30;;;;;;;10.73;5.63;;;13.90;58.20;;;;;;6242527;28;20386;-76
2021/11/15 15:59:31;;;;;;;11.65;5.70;;;14.00;58.10;;;;;;6276445;28;20029;-76